Wetterdaten: Woche 17.10.05 - 23.10.05 (KW42)
Datum Zeit Temperatur Luftfeuchte Luftdruck Niederschlag Wind Richtung Sonne Solar Taupunkt Windchill
17.10.2005 00:00 9.7 C 87 % 1024.5 hPa 0.0 l/m 0.0 km/h (0 Bft) N 0.00 h 0 W/m 7.7 C 9.7 C
17.10.2005 01:00 9.8 C 89 % 1024.5 hPa 0.0 l/m 0.0 km/h (0 Bft) N 0.00 h 0 W/m 8.0 C 9.8 C
17.10.2005 02:00 9.8 C 89 % 1023.7 hPa 0.0 l/m 1.1 km/h (0 Bft) O-NO 0.00 h 0 W/m 8.0 C 9.7 C
17.10.2005 03:00 9.7 C 88 % 1023.4 hPa 0.0 l/m 2.2 km/h (1 Bft) O-SO 0.00 h 0 W/m 7.8 C 9.4 C
17.10.2005 04:00 9.6 C 88 % 1023.5 hPa 0.0 l/m 1.5 km/h (1 Bft) O-SO 0.00 h 0 W/m 7.7 C 9.5 C
17.10.2005 05:00 9.4 C 85 % 1023.5 hPa 0.0 l/m 1.7 km/h (1 Bft) O 0.00 h 0 W/m 7.1 C 9.3 C
17.10.2005 06:00 9.0 C 86 % 1023.5 hPa 0.0 l/m 0.4 km/h (0 Bft) NO 0.00 h 0 W/m 6.8 C 9.0 C
17.10.2005 07:00 8.7 C 85 % 1023.6 hPa 0.0 l/m 1.4 km/h (1 Bft) O-NO 0.00 h 2 W/m 6.3 C 8.5 C
17.10.2005 08:00 8.3 C 83 % 1023.6 hPa 0.0 l/m 1.2 km/h (1 Bft) O-SO 0.00 h 12 W/m 5.6 C 8.2 C
17.10.2005 09:00 8.0 C 80 % 1023.7 hPa 0.0 l/m 0.8 km/h (0 Bft) O 0.00 h 42 W/m 4.7 C 8.0 C
17.10.2005 10:00 8.3 C 77 % 1023.6 hPa 0.0 l/m 0.4 km/h (0 Bft) O-NO 0.00 h 87 W/m 4.6 C 8.3 C
17.10.2005 11:00 8.7 C 77 % 1023.6 hPa 0.0 l/m 1.8 km/h (1 Bft) O-SO 0.00 h 136 W/m 4.9 C 8.6 C
17.10.2005 12:00 8.9 C 78 % 1023.6 hPa 0.0 l/m 11.1 km/h (2 Bft) O-SO 0.17 h 192 W/m 5.2 C 7.2 C
17.10.2005 13:00 9.9 C 74 % 1022.5 hPa 0.0 l/m 17.7 km/h (3 Bft) O-SO 0.97 h 495 W/m 5.4 C 8.0 C
17.10.2005 14:00 10.4 C 71 % 1022.3 hPa 0.0 l/m 18.0 km/h (3 Bft) O-SO 1.00 h 472 W/m 5.3 C 10.4 C
17.10.2005 15:00 11.0 C 68 % 1021.2 hPa 0.0 l/m 18.0 km/h (3 Bft) O-SO 1.00 h 404 W/m 5.3 C 11.0 C
17.10.2005 16:00 11.2 C 68 % 1021.2 hPa 0.0 l/m 13.7 km/h (3 Bft) O-SO 1.00 h 296 W/m 5.6 C 11.2 C
17.10.2005 17:00 10.6 C 72 % 1020.8 hPa 0.0 l/m 8.5 km/h (2 Bft) O-SO 0.90 h 137 W/m 5.7 C 10.6 C
17.10.2005 18:00 8.4 C 81 % 1021.5 hPa 0.0 l/m 0.5 km/h (0 Bft) SO 0.07 h 22 W/m 5.4 C 8.4 C
17.10.2005 19:00 6.6 C 92 % 1021.8 hPa 0.0 l/m 2.0 km/h (1 Bft) O-SO 0.00 h 0 W/m 5.3 C 6.3 C
17.10.2005 20:00 6.1 C 94 % 1021.9 hPa 0.0 l/m 0.7 km/h (0 Bft) O-SO 0.00 h 0 W/m 5.2 C 6.1 C
17.10.2005 21:00 6.7 C 88 % 1021.8 hPa 0.0 l/m 0.3 km/h (0 Bft) O-NO 0.00 h 0 W/m 4.7 C 6.7 C
17.10.2005 22:00 7.0 C 77 % 1021.8 hPa 0.0 l/m 1.1 km/h (0 Bft) N-NO 0.00 h 0 W/m 3.2 C 6.9 C
17.10.2005 23:00 6.1 C 77 % 1022.9 hPa 0.0 l/m 0.5 km/h (0 Bft) NO 0.00 h 0 W/m 2.4 C 6.1 C
18.10.2005 00:00 6.0 C 77 % 1022.9 hPa 0.0 l/m 3.8 km/h (1 Bft) NO 0.00 h 0 W/m 2.2 C 5.4 C
18.10.2005 01:00 5.3 C 79 % 1023.0 hPa 0.0 l/m 1.3 km/h (1 Bft) N-NO 0.00 h 0 W/m 1.9 C 5.1 C
18.10.2005 02:00 4.4 C 81 % 1023.1 hPa 0.0 l/m 0.8 km/h (0 Bft) N-NO 0.00 h 0 W/m 1.5 C 4.3 C
18.10.2005 03:00 2.2 C 90 % 1023.4 hPa 0.0 l/m 1.2 km/h (1 Bft) O 0.00 h 0 W/m 0.8 C 2.0 C
18.10.2005 04:00 1.8 C 95 % 1022.5 hPa 0.0 l/m 0.3 km/h (0 Bft) O 0.00 h 0 W/m 1.1 C 1.8 C
18.10.2005 05:00 3.7 C 96 % 1022.2 hPa 0.0 l/m 0.0 km/h (0 Bft) O 0.00 h 0 W/m 3.1 C 3.7 C
18.10.2005 06:00 4.4 C 86 % 1022.1 hPa 0.0 l/m 0.0 km/h (0 Bft) N 0.00 h 0 W/m 2.3 C 4.4 C
18.10.2005 07:00 4.7 C 79 % 1022.1 hPa 0.0 l/m 1.9 km/h (1 Bft) O-SO 0.00 h 3 W/m 1.4 C 4.3 C
18.10.2005 08:00 4.8 C 78 % 1022.1 hPa 0.0 l/m 1.1 km/h (0 Bft) O-SO 0.00 h 13 W/m 1.3 C 4.7 C
18.10.2005 09:00 5.2 C 77 % 1022.0 hPa 0.0 l/m 1.7 km/h (1 Bft) O-SO 0.00 h 48 W/m 1.5 C 5.0 C
18.10.2005 10:00 5.6 C 79 % 1022.7 hPa 0.0 l/m 3.0 km/h (1 Bft) O 0.00 h 73 W/m 2.3 C 5.3 C
18.10.2005 11:00 6.2 C 78 % 1022.9 hPa 0.0 l/m 2.0 km/h (1 Bft) O-SO 0.00 h 133 W/m 2.6 C 6.0 C
18.10.2005 12:00 7.3 C 75 % 1022.3 hPa 0.0 l/m 0.2 km/h (0 Bft) O 0.00 h 181 W/m 3.2 C 7.3 C
18.10.2005 13:00 8.1 C 75 % 1021.6 hPa 0.0 l/m 6.7 km/h (2 Bft) O-SO 0.00 h 174 W/m 3.9 C 7.0 C
18.10.2005 14:00 8.6 C 75 % 1021.4 hPa 0.0 l/m 10.0 km/h (2 Bft) O-SO 0.00 h 175 W/m 4.5 C 7.0 C
18.10.2005 15:00 8.4 C 76 % 1020.5 hPa 0.0 l/m 11.2 km/h (2 Bft) O-SO 0.00 h 98 W/m 4.4 C 6.6 C
18.10.2005 16:00 8.1 C 77 % 1020.5 hPa 0.0 l/m 7.4 km/h (2 Bft) O-SO 0.00 h 57 W/m 4.3 C 7.0 C
18.10.2005 17:00 7.8 C 78 % 1020.6 hPa 0.0 l/m 2.2 km/h (1 Bft) O 0.00 h 21 W/m 4.2 C 7.5 C
18.10.2005 18:00 7.4 C 80 % 1020.6 hPa 0.0 l/m 6.7 km/h (2 Bft) O-SO 0.00 h 4 W/m 4.3 C 6.4 C
18.10.2005 19:00 6.6 C 83 % 1020.8 hPa 0.0 l/m 1.2 km/h (1 Bft) O-SO 0.00 h 0 W/m 3.9 C 6.4 C
18.10.2005 20:00 4.3 C 92 % 1021.1 hPa 0.0 l/m 1.7 km/h (1 Bft) O 0.00 h 0 W/m 3.1 C 4.2 C
18.10.2005 21:00 3.4 C 96 % 1021.2 hPa 0.0 l/m 1.7 km/h (1 Bft) O 0.00 h 0 W/m 2.8 C 3.2 C
18.10.2005 22:00 3.1 C 99 % 1021.3 hPa 0.0 l/m 4.4 km/h (1 Bft) O 0.00 h 0 W/m 3.0 C 2.3 C
18.10.2005 23:00 2.9 C 100 % 1021.3 hPa 0.0 l/m 1.1 km/h (0 Bft) O 0.00 h 0 W/m 2.9 C 2.8 C
19.10.2005 00:00 2.0 C 100 % 1021.4 hPa 0.0 l/m 0.6 km/h (0 Bft) O 0.00 h 0 W/m 2.0 C 1.9 C
19.10.2005 01:00 2.6 C 100 % 1021.3 hPa 0.0 l/m 0.0 km/h (0 Bft) N 0.00 h 0 W/m 2.6 C 2.6 C
19.10.2005 02:00 3.2 C 100 % 1021.2 hPa 0.0 l/m 0.0 km/h (0 Bft) N 0.00 h 0 W/m 3.2 C 3.2 C
19.10.2005 03:00 3.6 C 100 % 1020.8 hPa 0.0 l/m 0.4 km/h (0 Bft) NW 0.00 h 0 W/m 3.6 C 3.5 C
19.10.2005 04:00 3.7 C 100 % 1020.1 hPa 0.0 l/m 0.4 km/h (0 Bft) W-NW 0.00 h 0 W/m 3.7 C 3.7 C
19.10.2005 05:00 4.0 C 100 % 1020.1 hPa 0.0 l/m 0.2 km/h (0 Bft) W-NW 0.00 h 0 W/m 4.0 C 4.0 C
19.10.2005 06:00 4.5 C 100 % 1020.0 hPa 0.0 l/m 0.2 km/h (0 Bft) O 0.00 h 0 W/m 4.5 C 4.5 C
19.10.2005 07:00 4.6 C 100 % 1019.7 hPa 0.0 l/m 0.1 km/h (0 Bft) N 0.00 h 4 W/m 4.6 C 4.6 C
19.10.2005 08:00 4.9 C 100 % 1019.5 hPa 0.0 l/m 2.7 km/h (1 Bft) O-SO 0.00 h 17 W/m 4.9 C 4.3 C
19.10.2005 09:00 6.0 C 95 % 1019.8 hPa 0.0 l/m 6.3 km/h (2 Bft) O-SO 0.00 h 80 W/m 5.2 C 4.7 C
19.10.2005 10:00 6.8 C 87 % 1019.7 hPa 0.0 l/m 2.3 km/h (1 Bft) O-SO 0.07 h 143 W/m 4.8 C 6.4 C
19.10.2005 11:00 7.9 C 83 % 1019.5 hPa 0.0 l/m 1.4 km/h (1 Bft) O-SO 0.00 h 172 W/m 5.2 C 7.8 C
19.10.2005 12:00 8.8 C 81 % 1019.4 hPa 0.0 l/m 0.7 km/h (0 Bft) O-SO 0.00 h 140 W/m 5.7 C 8.7 C
19.10.2005 13:00 9.3 C 82 % 1019.3 hPa 0.0 l/m 0.6 km/h (0 Bft) S 0.00 h 111 W/m 6.5 C 9.3 C
19.10.2005 14:00 10.2 C 79 % 1018.6 hPa 0.0 l/m 1.7 km/h (1 Bft) W-NW 0.00 h 199 W/m 6.7 C 10.2 C
19.10.2005 15:00 11.2 C 75 % 1018.0 hPa 0.0 l/m 0.4 km/h (0 Bft) W-NW 0.27 h 231 W/m 6.9 C 11.2 C
19.10.2005 16:00 11.3 C 76 % 1018.0 hPa 0.0 l/m 0.5 km/h (0 Bft) W-NW 0.00 h 110 W/m 7.4 C 11.3 C
19.10.2005 17:00 11.4 C 78 % 1018.0 hPa 0.0 l/m 0.0 km/h (0 Bft) N 0.03 h 72 W/m 7.8 C 11.4 C
19.10.2005 18:00 10.2 C 84 % 1018.8 hPa 0.0 l/m 0.1 km/h (0 Bft) W 0.07 h 19 W/m 7.5 C 10.2 C
19.10.2005 19:00 8.8 C 91 % 1019.4 hPa 0.0 l/m 0.3 km/h (0 Bft) W 0.00 h 0 W/m 7.4 C 8.8 C
19.10.2005 20:00 7.7 C 94 % 1019.4 hPa 0.0 l/m 0.0 km/h (0 Bft) N 0.00 h 0 W/m 6.9 C 7.7 C
19.10.2005 21:00 7.2 C 96 % 1019.6 hPa 0.0 l/m 0.0 km/h (0 Bft) N 0.00 h 0 W/m 6.7 C 7.2 C
19.10.2005 22:00 7.6 C 98 % 1019.6 hPa 0.0 l/m 0.0 km/h (0 Bft) N 0.00 h 0 W/m 7.3 C 7.6 C
19.10.2005 23:00 8.3 C 99 % 1018.6 hPa 0.0 l/m 0.0 km/h (0 Bft) N 0.00 h 0 W/m 8.1 C 8.3 C
20.10.2005 00:00 8.6 C 100 % 1018.4 hPa 0.0 l/m 0.0 km/h (0 Bft) N 0.00 h 0 W/m 8.6 C 8.6 C
20.10.2005 01:00 8.7 C 99 % 1018.4 hPa 0.0 l/m 0.0 km/h (0 Bft) N 0.00 h 0 W/m 8.6 C 8.7 C
20.10.2005 02:00 8.8 C 99 % 1018.4 hPa 0.0 l/m 0.0 km/h (0 Bft) N 0.00 h 0 W/m 8.6 C 8.8 C
20.10.2005 03:00 8.7 C 97 % 1018.3 hPa 0.0 l/m 0.6 km/h (0 Bft) W-NW 0.00 h 0 W/m 8.3 C 8.7 C
20.10.2005 04:00 8.7 C 98 % 1017.6 hPa 0.0 l/m 0.2 km/h (0 Bft) W-NW 0.00 h 0 W/m 8.4 C 8.7 C
20.10.2005 05:00 8.7 C 99 % 1017.8 hPa 0.0 l/m 1.8 km/h (1 Bft) O-SO 0.00 h 0 W/m 8.5 C 8.4 C
20.10.2005 06:00 8.8 C 98 % 1017.3 hPa 0.0 l/m 0.3 km/h (0 Bft) SO 0.00 h 0 W/m 8.5 C 8.8 C
20.10.2005 07:00 8.9 C 99 % 1017.3 hPa 0.0 l/m 0.0 km/h (0 Bft) N 0.00 h 0 W/m 8.7 C 8.9 C
20.10.2005 08:00 9.0 C 99 % 1017.3 hPa 0.0 l/m 0.0 km/h (0 Bft) N 0.00 h 10 W/m 8.8 C 9.0 C
20.10.2005 09:00 9.2 C 99 % 1017.3 hPa 0.0 l/m 0.3 km/h (0 Bft) SO 0.00 h 38 W/m 9.0 C 9.2 C
20.10.2005 10:00 9.6 C 99 % 1017.2 hPa 0.0 l/m 0.0 km/h (0 Bft) N 0.00 h 68 W/m 9.5 C 9.6 C
20.10.2005 11:00 10.4 C 96 % 1017.1 hPa 0.0 l/m 1.9 km/h (1 Bft) W-NW 0.00 h 130 W/m 9.8 C 10.4 C
20.10.2005 12:00 11.9 C 89 % 1016.3 hPa 0.0 l/m 0.8 km/h (0 Bft) W-NW 0.00 h 226 W/m 10.1 C 11.9 C
20.10.2005 13:00 13.3 C 83 % 1015.4 hPa 0.0 l/m 0.9 km/h (0 Bft) W-NW 0.23 h 277 W/m 10.6 C 13.3 C
20.10.2005 14:00 14.9 C 76 % 1014.4 hPa 0.0 l/m 3.3 km/h (1 Bft) W-NW 1.00 h 417 W/m 10.8 C 14.9 C
20.10.2005 15:00 15.9 C 73 % 1013.6 hPa 0.0 l/m 3.2 km/h (1 Bft) W-NW 1.00 h 345 W/m 11.1 C 15.9 C
20.10.2005 16:00 15.9 C 76 % 1013.3 hPa 0.0 l/m 1.7 km/h (1 Bft) W-NW 0.73 h 200 W/m 11.7 C 15.9 C
20.10.2005 17:00 15.1 C 80 % 1013.4 hPa 0.0 l/m 0.3 km/h (0 Bft) W 0.43 h 93 W/m 11.6 C 15.1 C
20.10.2005 18:00 12.8 C 88 % 1013.7 hPa 0.0 l/m 0.6 km/h (0 Bft) S 0.03 h 19 W/m 10.8 C 12.8 C
20.10.2005 19:00 11.2 C 94 % 1013.9 hPa 0.0 l/m 0.0 km/h (0 Bft) N 0.00 h 0 W/m 10.2 C 11.2 C
20.10.2005 20:00 10.4 C 96 % 1014.0 hPa 0.0 l/m 0.0 km/h (0 Bft) N 0.00 h 0 W/m 9.7 C 10.4 C
20.10.2005 21:00 9.9 C 97 % 1014.1 hPa 0.0 l/m 0.0 km/h (0 Bft) N 0.00 h 0 W/m 9.5 C 9.9 C
20.10.2005 22:00 10.4 C 98 % 1014.0 hPa 0.0 l/m 0.0 km/h (0 Bft) N 0.00 h 0 W/m 10.2 C 10.4 C
20.10.2005 23:00 10.5 C 99 % 1014.0 hPa 0.0 l/m 0.9 km/h (0 Bft) SO 0.00 h 0 W/m 10.4 C 10.5 C
21.10.2005 00:00 10.3 C 99 % 1014.0 hPa 0.0 l/m 0.2 km/h (0 Bft) O-SO 0.00 h 0 W/m 10.2 C 10.3 C
21.10.2005 01:00 10.1 C 100 % 1014.0 hPa 0.0 l/m 0.4 km/h (0 Bft) O-SO 0.00 h 0 W/m 10.1 C 10.1 C
21.10.2005 02:00 10.1 C 100 % 1014.0 hPa 0.0 l/m 0.0 km/h (0 Bft) N 0.00 h 0 W/m 10.1 C 10.1 C
21.10.2005 03:00 10.0 C 100 % 1014.1 hPa 0.0 l/m 0.1 km/h (0 Bft) O-SO 0.00 h 0 W/m 10.0 C 10.0 C
21.10.2005 04:00 10.1 C 100 % 1014.0 hPa 0.0 l/m 0.0 km/h (0 Bft) N 0.00 h 0 W/m 10.1 C 10.1 C
21.10.2005 05:00 10.1 C 100 % 1014.0 hPa 0.0 l/m 0.2 km/h (0 Bft) O-SO 0.00 h 0 W/m 10.1 C 10.1 C
21.10.2005 06:00 10.1 C 99 % 1014.0 hPa 0.3 l/m 0.4 km/h (0 Bft) S-SO 0.00 h 0 W/m 9.9 C 10.1 C
21.10.2005 07:00 10.2 C 99 % 1012.2 hPa 0.0 l/m 0.0 km/h (0 Bft) N 0.00 h 0 W/m 10.1 C 10.2 C
21.10.2005 08:00 10.3 C 99 % 1011.9 hPa 0.0 l/m 0.0 km/h (0 Bft) N 0.00 h 8 W/m 10.2 C 10.3 C
21.10.2005 09:00 10.7 C 99 % 1011.9 hPa 0.0 l/m 0.0 km/h (0 Bft) N 0.00 h 46 W/m 10.5 C 10.7 C
21.10.2005 10:00 11.3 C 97 % 1011.8 hPa 0.0 l/m 0.9 km/h (0 Bft) W 0.00 h 81 W/m 10.9 C 11.3 C
21.10.2005 11:00 11.7 C 95 % 1011.7 hPa 0.0 l/m 0.5 km/h (0 Bft) W-NW 0.00 h 86 W/m 10.9 C 11.7 C
21.10.2005 12:00 12.8 C 89 % 1011.6 hPa 0.0 l/m 0.5 km/h (0 Bft) W-NW 0.00 h 184 W/m 11.0 C 12.8 C
21.10.2005 13:00 13.5 C 84 % 1010.5 hPa 0.0 l/m 1.4 km/h (1 Bft) W-NW 0.00 h 186 W/m 10.9 C 13.5 C
21.10.2005 14:00 14.3 C 81 % 1009.8 hPa 0.0 l/m 1.5 km/h (1 Bft) W-NW 0.33 h 305 W/m 11.1 C 14.3 C
21.10.2005 15:00 15.9 C 76 % 1009.1 hPa 0.0 l/m 0.3 km/h (0 Bft) W-NW 0.60 h 308 W/m 11.6 C 15.9 C
21.10.2005 16:00 18.4 C 65 % 1008.0 hPa 0.0 l/m 1.5 km/h (1 Bft) W-NW 0.75 h 264 W/m 11.6 C 18.4 C
21.10.2005 17:00 17.3 C 69 % 1007.9 hPa 0.0 l/m 1.1 km/h (0 Bft) O-SO 0.42 h 87 W/m 11.6 C 17.3 C
21.10.2005 18:00 15.8 C 77 % 1008.1 hPa 0.0 l/m 0.3 km/h (0 Bft) SO 0.00 h 12 W/m 11.8 C 15.8 C
21.10.2005 19:00 13.7 C 83 % 1008.4 hPa 0.0 l/m 1.0 km/h (0 Bft) SO 0.00 h 0 W/m 10.9 C 13.7 C
21.10.2005 20:00 12.2 C 91 % 1008.7 hPa 0.0 l/m 0.5 km/h (0 Bft) O 0.00 h 0 W/m 10.8 C 12.2 C
21.10.2005 21:00 12.4 C 94 % 1009.4 hPa 0.0 l/m 0.0 km/h (0 Bft) N 0.00 h 0 W/m 11.6 C 12.4 C
21.10.2005 22:00 12.5 C 95 % 1009.6 hPa 0.0 l/m 0.3 km/h (0 Bft) O 0.00 h 0 W/m 11.7 C 12.5 C
21.10.2005 23:00 12.6 C 95 % 1009.5 hPa 0.3 l/m 1.6 km/h (1 Bft) O 0.00 h 0 W/m 11.9 C 12.6 C
22.10.2005 00:00 12.9 C 95 % 1009.5 hPa 0.0 l/m 4.0 km/h (1 Bft) O-SO 0.00 h 0 W/m 12.1 C 12.9 C
22.10.2005 01:00 13.0 C 93 % 1009.5 hPa 0.0 l/m 0.6 km/h (0 Bft) O 0.00 h 0 W/m 11.9 C 13.0 C
22.10.2005 02:00 12.7 C 94 % 1009.5 hPa 0.0 l/m 2.2 km/h (1 Bft) SO 0.00 h 0 W/m 11.8 C 12.7 C
22.10.2005 03:00 12.8 C 95 % 1009.5 hPa 0.0 l/m 0.9 km/h (0 Bft) SO 0.00 h 0 W/m 12.0 C 12.8 C
22.10.2005 04:00 12.9 C 95 % 1009.5 hPa 0.0 l/m 4.6 km/h (1 Bft) SO 0.00 h 0 W/m 12.1 C 12.9 C
22.10.2005 05:00 12.6 C 95 % 1009.5 hPa 0.3 l/m 0.2 km/h (0 Bft) S-SO 0.00 h 0 W/m 11.8 C 12.6 C
22.10.2005 06:00 12.4 C 96 % 1009.6 hPa 0.0 l/m 0.4 km/h (0 Bft) O-SO 0.00 h 0 W/m 11.9 C 12.4 C
22.10.2005 07:00 12.1 C 97 % 1009.6 hPa 0.0 l/m 0.4 km/h (0 Bft) S 0.00 h 0 W/m 11.6 C 12.1 C
22.10.2005 08:00 12.7 C 97 % 1009.5 hPa 0.0 l/m 2.0 km/h (1 Bft) SO 0.13 h 41 W/m 12.3 C 12.7 C
22.10.2005 09:00 13.7 C 86 % 1009.4 hPa 0.0 l/m 0.1 km/h (0 Bft) N 0.23 h 123 W/m 11.3 C 13.7 C
22.10.2005 10:00 14.7 C 80 % 1009.7 hPa 0.0 l/m 1.6 km/h (1 Bft) O-NO 0.00 h 141 W/m 11.3 C 14.7 C
22.10.2005 11:00 15.4 C 78 % 1010.0 hPa 0.0 l/m 0.8 km/h (0 Bft) W-NW 0.17 h 178 W/m 11.5 C 15.4 C
22.10.2005 12:00 16.9 C 72 % 1009.9 hPa 0.0 l/m 2.7 km/h (1 Bft) W-NW 0.93 h 473 W/m 11.7 C 16.9 C
22.10.2005 13:00 19.1 C 62 % 1008.8 hPa 0.0 l/m 7.9 km/h (2 Bft) SO 0.72 h 463 W/m 11.5 C 19.1 C
22.10.2005 14:00 19.2 C 58 % 1008.7 hPa 0.0 l/m 9.6 km/h (2 Bft) W 0.62 h 383 W/m 10.8 C 19.2 C
22.10.2005 15:00 19.8 C 54 % 1008.6 hPa 0.0 l/m 12.1 km/h (2 Bft) W 0.70 h 317 W/m 10.4 C 19.8 C
22.10.2005 16:00 20.5 C 54 % 1008.2 hPa 0.0 l/m 4.6 km/h (1 Bft) SO 0.97 h 280 W/m 10.9 C 20.5 C
22.10.2005 17:00 19.1 C 58 % 1008.4 hPa 0.0 l/m 2.5 km/h (1 Bft) S-SO 0.30 h 87 W/m 10.6 C 19.1 C
22.10.2005 18:00 15.5 C 72 % 1009.2 hPa 0.0 l/m 0.0 km/h (0 Bft) N 0.00 h 11 W/m 10.5 C 15.5 C
22.10.2005 19:00 13.8 C 83 % 1009.4 hPa 0.0 l/m 0.0 km/h (0 Bft) N 0.00 h 0 W/m 10.9 C 13.8 C
22.10.2005 20:00 13.1 C 89 % 1010.3 hPa 0.0 l/m 0.8 km/h (0 Bft) O 0.00 h 0 W/m 11.4 C 13.1 C
22.10.2005 21:00 12.9 C 93 % 1011.0 hPa 0.0 l/m 1.2 km/h (1 Bft) O 0.00 h 0 W/m 11.8 C 12.9 C
22.10.2005 22:00 13.6 C 92 % 1011.5 hPa 0.0 l/m 5.0 km/h (1 Bft) W-NW 0.00 h 0 W/m 12.4 C 13.6 C
22.10.2005 23:00 13.5 C 88 % 1011.5 hPa 1.0 l/m 2.6 km/h (1 Bft) O 0.00 h 0 W/m 11.6 C 13.5 C
23.10.2005 00:00 13.4 C 93 % 1012.0 hPa 3.6 l/m 6.0 km/h (2 Bft) W-NW 0.00 h 0 W/m 12.4 C 13.4 C
23.10.2005 01:00 13.2 C 96 % 1012.2 hPa 0.6 l/m 0.8 km/h (0 Bft) O-SO 0.00 h 0 W/m 12.6 C 13.2 C
23.10.2005 02:00 13.3 C 98 % 1012.6 hPa 1.3 l/m 2.7 km/h (1 Bft) SO 0.00 h 0 W/m 12.9 C 13.3 C
23.10.2005 03:00 13.3 C 98 % 1013.0 hPa 0.6 l/m 3.3 km/h (1 Bft) SO 0.00 h 0 W/m 13.0 C 13.3 C
23.10.2005 04:00 13.1 C 98 % 1012.9 hPa 0.0 l/m 2.4 km/h (1 Bft) SO 0.00 h 0 W/m 12.9 C 13.1 C
23.10.2005 05:00 13.0 C 99 % 1013.2 hPa 0.3 l/m 0.6 km/h (0 Bft) O-NO 0.00 h 0 W/m 12.8 C 13.0 C
23.10.2005 06:00 12.7 C 99 % 1013.7 hPa 0.0 l/m 2.2 km/h (1 Bft) SO 0.00 h 0 W/m 12.6 C 12.7 C
23.10.2005 07:00 12.5 C 99 % 1013.7 hPa 0.0 l/m 0.6 km/h (0 Bft) SO 0.00 h 0 W/m 12.4 C 12.5 C
23.10.2005 08:00 12.5 C 99 % 1013.8 hPa 0.0 l/m 0.9 km/h (0 Bft) O-SO 0.00 h 13 W/m 12.4 C 12.5 C
23.10.2005 09:00 13.1 C 95 % 1014.7 hPa 0.0 l/m 2.0 km/h (1 Bft) SO 0.00 h 52 W/m 12.3 C 13.1 C
23.10.2005 10:00 13.5 C 92 % 1015.6 hPa 0.0 l/m 1.5 km/h (1 Bft) O-SO 0.00 h 55 W/m 12.1 C 13.5 C
23.10.2005 11:00 13.8 C 91 % 1015.9 hPa 0.0 l/m 0.5 km/h (0 Bft) O-SO 0.00 h 104 W/m 12.4 C 13.8 C
23.10.2005 12:00 14.4 C 89 % 1016.6 hPa 0.0 l/m 0.8 km/h (0 Bft) W-SW 0.00 h 139 W/m 12.6 C 14.4 C
23.10.2005 13:00 14.6 C 88 % 1016.5 hPa 0.0 l/m 0.9 km/h (0 Bft) SO 0.00 h 132 W/m 12.6 C 14.6 C
23.10.2005 14:00 14.7 C 81 % 1016.5 hPa 0.0 l/m 8.8 km/h (2 Bft) W-NW 0.00 h 79 W/m 11.5 C 14.7 C
23.10.2005 15:00 14.3 C 75 % 1017.5 hPa 0.0 l/m 10.5 km/h (2 Bft) W-NW 0.00 h 100 W/m 9.9 C 14.3 C
23.10.2005 16:00 14.4 C 75 % 1017.6 hPa 0.0 l/m 11.4 km/h (2 Bft) W-NW 0.13 h 112 W/m 10.0 C 14.4 C
23.10.2005 17:00 14.3 C 77 % 1017.9 hPa 0.0 l/m 4.5 km/h (1 Bft) W-NW 0.20 h 74 W/m 10.3 C 14.3 C
23.10.2005 18:00 12.5 C 87 % 1018.9 hPa 0.0 l/m 1.6 km/h (1 Bft) SO 0.03 h 14 W/m 10.4 C 12.5 C
23.10.2005 19:00 11.8 C 93 % 1019.5 hPa 0.0 l/m 2.3 km/h (1 Bft) O-SO 0.00 h 0 W/m 10.7 C 11.8 C
23.10.2005 20:00 11.6 C 95 % 1020.1 hPa 0.0 l/m 0.6 km/h (0 Bft) O-SO 0.00 h 0 W/m 10.8 C 11.6 C
23.10.2005 21:00 10.5 C 95 % 1020.5 hPa 0.0 l/m 0.7 km/h (0 Bft) O-SO 0.00 h 0 W/m 9.8 C 10.5 C
23.10.2005 22:00 10.3 C 96 % 1021.5 hPa 0.0 l/m 2.5 km/h (1 Bft) O-SO 0.00 h 0 W/m 9.7 C 10.3 C
23.10.2005 23:00 9.3 C 98 % 1022.5 hPa 0.0 l/m 0.0 km/h (0 Bft) N 0.00 h 0 W/m 9.0 C 9.3 C
Min-Datum _ 18.10.05 22.10.05 22.10.05 - 17.10.05 - - - 18.10.05 18.10.05
_ Min-Zeit 04:16 15:03 16:46 - 00:00 - - - 03:08 03:56
Minimum _ 1.5 C 53 % 1007.4 hPa - 0.0 km/h (0 Bft) - - - 0.1 C 0.1 C
Max-Datum _ 22.10.05 18.10.05 17.10.05 23.10.05 22.10.05 - 17.10.05 22.10.05 23.10.05 22.10.05
_ Max-Zeit 16:46 22:35 00:20 00:17 15:15 - 17:32 13:22 02:51 16:46
Maximum _ 20.8 C 100 % 1024.5 hPa 3.6 l/m 36.1 km/h
W (5 Bft)
- 0.05 h 665 W/m 13.1 C 20.8 C
Durchschnitt _ 10.3 C 88 % 1016.7 hPa #8.4 l/m 2.1 km/h (1 Bft) O-SO #16:12 h 142 W/m 8.2 C 10.2 C

Durchschnitt Minimum Temp.9.9 C
Durchschnitt Maximum Temp.10.7 C
© Kaiko 2005